Barnaul Airport
UNBB : now visible

Airfield :











YOU CAN JOIN US ON...

 
LOGIN :

Register | Disclaimer

   EN    FR    IT 

 









Legend :    VFR   Marginal VFR   IFR   Intensive IFR   Very Intensive IFR
Visi :
Ceiling :
>= 8 km
>= 3000ft
5 to 8 km
1000 to 3000 ft
1500m to 5 km
500 to 1000 ft
800 to 1500m
200 to 500 ft
< 800m
< 200 ft
Symbols :   Thunderstorms  Fog  Heavy snow  Heavy precipitations  Wind > 20 kt






- Airport Elevation : 837 ft
- IATA code : BAX


UNBB - Barnaul

CURRENT METAR :
  • 071000Z 29006MPS 9999 SCT040CB 21/08 Q1017 R24/CLRD66 NOSIG RMK QFE741

EXPIRED METARs :
  • 070930Z 29006MPS 9999 SCT040CB 19/09 Q1017 R24/CLRD66 NOSIG RMK QFE741
  • 070900Z 30006MPS 9999 TS BKN040CB 22/10 Q1017 R24/CLRD66 NOSIG RMK QFE741
  • 070830Z 32008G13MPS 9999 -TSRA BKN040CB 20/11 Q1018 R24/CLRD66 NOSIG RMK QFE741
  • 070800Z 30007MPS 9999 SCT040CB 23/08 Q1018 R24/CLRD66 NOSIG RMK QFE741
  • 070730Z 30008MPS 9999 SCT040CB 22/08 Q1018 R24/CLRD66 NOSIG RMK QFE741

TAF TAF UNBB
Valid from the 07 at 09:00 until the 08 at 09:00 UTC


070800Z 0709/0809 30008G13MPS 9999 BKN030CB
TEMPO 0709/0715 -TSRA
BECMG 0716/0718 33003G08MPS
UNBB FIR / Asia



MET'MAP, your aeronautical weather chart ! - Copyright ORBIFLY December 2007 - Disclaimer

ORBIFLY MET'MAP TEAM :

Programming & Development : Alexandra Zaïnal
Concept & original design : Baudouin d'Aumeries
Assistance for programming : Marc-Olivier Méhu
Technical & hardware support : Manuel Goepfert

Contact : metmap@orbifly.com




SOURCES & CREDITS :

   NOAA       Earth
Advisory